Time;durP1;ratioP1;P1;durP2;ratioP2;P2;SDS_P1;SDS_P2;PMS_P1;PMS_P2;Temp;Humidity;BMP_temperature;BMP_pressure;BME280_temperature;BME280_humidity;BME280_pressure;Samples;Min_cycle;Max_cycle;Signal;HPM_P1;HPM_P2
2022/01/11 00:01:19;;;;;;;;;;;;;;;-0.56;100.00;103079.16;4963423;28;19934;-75
2022/01/11 00:03:44;;;;;;;;;;;;;;;-0.56;100.00;103085.84;4962968;28;19997;-75
2022/01/11 00:08:48;;;;;;;;;;;;;;;-0.56;100.00;103091.78;4964312;28;19957;-75
2022/01/11 00:11:14;;;;;;;;;;;;;;;-0.47;100.00;103088.47;4962069;28;20358;-76
2022/01/11 00:13:40;;;;;;;;;;;;;;;-0.43;100.00;103094.00;4967476;28;20004;-76
2022/01/11 00:16:07;;;;;;;;;;;;;;;-0.48;100.00;103106.91;4961303;28;20432;-76
2022/01/11 00:18:33;;;;;;;;;;;;;;;-0.51;100.00;103101.50;4966291;28;19926;-76
2022/01/11 00:20:58;;;;;;;;;;;;;;;-0.41;100.00;103100.13;4983398;28;19977;-76
2022/01/11 00:25:50;;;;;;;;;;;;;;;-0.35;100.00;103098.28;4964534;28;20017;-75
2022/01/11 00:28:17;;;;;;;;;;;;;;;-0.48;100.00;103102.75;4965216;28;19926;-75
2022/01/11 00:30:44;;;;;;;;;;;;;;;-0.49;100.00;103105.09;4963422;28;20431;-75
2022/01/11 00:33:14;;;;;;;;;;;;;;;-0.53;100.00;103113.09;4963925;28;20331;-77
2022/01/11 00:35:56;;;;;;;;;;;;;;;-0.46;100.00;103106.31;4960795;28;19977;-74
2022/01/11 00:38:22;;;;;;;;;;;;;;;-0.42;100.00;103103.41;4964802;28;19927;-75
2022/01/11 00:40:49;;;;;;;;;;;;;;;-0.48;100.00;103104.38;4966220;28;19977;-75
2022/01/11 00:43:15;;;;;;;;;;;;;;;-0.51;100.00;103094.81;4964547;28;20025;-78
2022/01/11 00:45:41;;;;;;;;;;;;;;;-0.48;100.00;103085.06;4962883;28;19918;-75
2022/01/11 00:48:06;;;;;;;;;;;;;;;-0.58;100.00;103088.22;4965971;28;19925;-76
2022/01/11 00:50:33;;;;;;;;;;;;;;;-0.60;100.00;103092.22;4962138;28;20056;-75
2022/01/11 00:52:58;;;;;;;;;;;;;;;-0.60;100.00;103092.22;4960624;28;20013;-75
2022/01/11 00:55:23;;;;;;;;;;;;;;;-0.67;100.00;103093.88;4964916;28;19919;-75
2022/01/11 00:57:49;;;;;;;;;;;;;;;-0.66;100.00;103094.06;4966827;28;20299;-75
2022/01/11 01:00:14;;;;;;;;;;;;;;;-0.63;100.00;103111.19;4964704;28;19922;-75
2022/01/11 01:02:40;;;;;;;;;;;;;;;-0.66;100.00;103114.28;4964041;28;19930;-75
2022/01/11 01:05:06;;;;;;;;;;;;;;;-0.67;100.00;103115.00;4961676;28;19922;-75
2022/01/11 01:07:31;;;;;;;;;;;;;;;-0.71;100.00;103107.81;4962682;28;19926;-75
2022/01/11 01:10:19;;;;;;;;;;;;;;;-0.69;100.00;103108.88;4961381;28;20376;-75
2022/01/11 01:12:44;;;;;;;;;;;;;;;-0.67;100.00;103112.47;4965227;28;19937;-75
2022/01/11 01:15:09;;;;;;;;;;;;;;;-0.59;100.00;103096.53;4965544;28;19918;-75
2022/01/11 01:17:35;;;;;;;;;;;;;;;-0.61;100.00;103095.47;4960337;28;19930;-76
2022/01/11 01:20:00;;;;;;;;;;;;;;;-0.67;100.00;103092.25;4965220;28;19922;-75
2022/01/11 01:22:25;;;;;;;;;;;;;;;-0.65;100.00;103095.88;4963559;28;20013;-75
2022/01/11 01:24:51;;;;;;;;;;;;;;;-0.63;100.00;103104.50;4964256;28;20324;-75
2022/01/11 01:27:16;;;;;;;;;;;;;;;-0.48;100.00;103102.75;4963887;28;19922;-74
2022/01/11 01:29:41;;;;;;;;;;;;;;;-0.62;100.00;103118.91;4965233;28;19990;-77
2022/01/11 01:32:07;;;;;;;;;;;;;;;-0.61;100.00;103109.72;4960288;28;20368;-76
2022/01/11 01:34:33;;;;;;;;;;;;;;;-0.68;100.00;103119.88;4969567;28;20367;-76
2022/01/11 01:36:58;;;;;;;;;;;;;;;-0.65;100.00;103116.06;4963942;28;19918;-75
2022/01/11 01:39:25;;;;;;;;;;;;;;;-0.69;100.00;103120.63;4964968;28;19930;-75
2022/01/11 01:41:50;;;;;;;;;;;;;;;-0.68;100.00;103114.84;4961658;28;19976;-76
2022/01/11 01:44:16;;;;;;;;;;;;;;;-0.63;100.00;103104.50;4964193;28;20020;-76
2022/01/11 01:46:41;;;;;;;;;;;;;;;-0.56;100.00;103099.38;4965338;28;19926;-75
2022/01/11 01:49:08;;;;;;;;;;;;;;;-0.63;100.00;103114.59;4981333;28;20016;-75
2022/01/11 01:51:33;;;;;;;;;;;;;;;-0.63;100.00;103106.13;4958897;28;20037;-76
2022/01/11 01:53:58;;;;;;;;;;;;;;;-0.68;100.00;103105.63;4958001;28;20034;-76
2022/01/11 01:56:24;;;;;;;;;;;;;;;-0.73;100.00;103101.69;4960062;28;19930;-75
2022/01/11 01:58:49;;;;;;;;;;;;;;;-0.73;100.00;103110.91;4962166;28;19918;-75
2022/01/11 02:01:15;;;;;;;;;;;;;;;-0.75;100.00;103118.31;4969099;28;20002;-75
2022/01/11 02:03:41;;;;;;;;;;;;;;;-0.77;100.00;103114.75;4980739;28;20449;-75
2022/01/11 02:06:08;;;;;;;;;;;;;;;-0.80;100.00;103111.84;4959096;28;20299;-75
2022/01/11 02:08:33;;;;;;;;;;;;;;;-0.74;100.00;103119.22;4957862;28;20058;-75
2022/01/11 02:10:59;;;;;;;;;;;;;;;-0.75;100.00;103122.47;4959540;28;20425;-75
2022/01/11 02:13:24;;;;;;;;;;;;;;;-0.81;100.00;103116.03;4966624;28;19918;-75
2022/01/11 02:15:50;;;;;;;;;;;;;;;-0.71;100.00;103117.94;4961845;28;20364;-75
2022/01/11 02:18:22;;;;;;;;;;;;;;;-0.69;100.00;103126.56;4962239;28;19925;-76
2022/01/11 02:20:49;;;;;;;;;;;;;;;-0.72;100.00;103131.31;4958268;28;20433;-76
2022/01/11 02:23:15;;;;;;;;;;;;;;;-0.77;100.00;103137.47;4965219;28;19926;-75
2022/01/11 02:25:41;;;;;;;;;;;;;;;-0.76;100.00;103135.84;4963262;28;20618;-77
2022/01/11 02:28:06;;;;;;;;;;;;;;;-0.72;100.00;103135.47;4962381;28;20017;-75
2022/01/11 02:30:33;;;;;;;;;;;;;;;-0.65;100.00;103138.81;4948003;28;20388;-75
2022/01/11 02:32:59;;;;;;;;;;;;;;;-0.71;100.00;103147.34;4966168;28;19923;-75
2022/01/11 02:35:24;;;;;;;;;;;;;;;-0.73;100.00;103149.69;4962728;28;19966;-75
2022/01/11 02:37:50;;;;;;;;;;;;;;;-0.67;100.00;103152.88;4962627;28;19965;-75
2022/01/11 02:40:17;;;;;;;;;;;;;;;-0.73;100.00;103149.69;4968711;28;19922;-75
2022/01/11 02:42:42;;;;;;;;;;;;;;;-0.67;100.00;103154.53;4963390;28;20398;-75
2022/01/11 02:45:12;;;;;;;;;;;;;;;-0.73;100.00;103154.75;4965368;28;19918;-75
2022/01/11 02:47:37;;;;;;;;;;;;;;;-0.71;100.00;103160.88;4985497;28;20417;-75
2022/01/11 02:50:02;;;;;;;;;;;;;;;-0.72;100.00;103159.09;4966762;28;19930;-75
2022/01/11 02:52:28;;;;;;;;;;;;;;;-0.70;100.00;103162.69;4964676;28;20350;-75
2022/01/11 02:54:53;;;;;;;;;;;;;;;-0.75;100.00;103165.41;4964607;28;19922;-76
2022/01/11 02:57:19;;;;;;;;;;;;;;;-0.69;100.00;103167.00;4962919;28;19929;-75
2022/01/11 02:59:44;;;;;;;;;;;;;;;-0.69;100.00;103169.53;4963427;28;19980;-76
2022/01/11 03:02:10;;;;;;;;;;;;;;;-0.61;100.00;103176.34;4965561;28;19950;-76
2022/01/11 03:04:35;;;;;;;;;;;;;;;-0.68;100.00;103167.88;4961991;28;19957;-75
2022/01/11 03:07:00;;;;;;;;;;;;;;;-0.71;100.00;103160.88;4963967;28;19922;-75
2022/01/11 03:09:29;;;;;;;;;;;;;;;-0.72;100.00;103170.84;4965422;28;19958;-76
2022/01/11 03:11:55;;;;;;;;;;;;;;;-0.54;100.00;103162.75;4962839;28;19964;-75
2022/01/11 03:14:21;;;;;;;;;;;;;;;-0.71;100.00;103160.00;4964938;28;20380;-75
2022/01/11 03:16:46;;;;;;;;;;;;;;;-0.73;100.00;103180.00;4964386;28;19933;-75
2022/01/11 03:19:11;;;;;;;;;;;;;;;-0.72;100.00;103174.25;4967375;28;20098;-75
2022/01/11 03:21:36;;;;;;;;;;;;;;;-0.66;100.00;103169.88;4961590;28;19969;-75
2022/01/11 03:24:02;;;;;;;;;;;;;;;-0.70;100.00;103167.72;4965286;28;19926;-75
2022/01/11 03:26:27;;;;;;;;;;;;;;;-0.68;100.00;103167.88;4967971;28;19922;-75
2022/01/11 03:28:53;;;;;;;;;;;;;;;-0.53;100.00;103166.16;4964137;28;20029;-76
2022/01/11 03:31:21;;;;;;;;;;;;;;;-0.63;100.00;103162.63;4966778;28;19926;-76
2022/01/11 03:33:46;;;;;;;;;;;;;;;-0.61;100.00;103160.25;4964222;28;19918;-76
2022/01/11 03:36:12;;;;;;;;;;;;;;;-0.61;100.00;103155.19;4962776;28;19930;-75
2022/01/11 03:38:37;;;;;;;;;;;;;;;-0.66;100.00;103156.34;4967116;28;19964;-75
2022/01/11 03:41:02;;;;;;;;;;;;;;;-0.62;100.00;103154.28;4965091;28;19930;-75
2022/01/11 03:43:27;;;;;;;;;;;;;;;-0.68;100.00;103156.16;4965618;28;19956;-75
2022/01/11 03:45:53;;;;;;;;;;;;;;;-0.65;100.00;103164.09;4971850;28;19922;-75
2022/01/11 03:48:19;;;;;;;;;;;;;;;-0.69;100.00;103161.03;4984154;28;19926;-75
2022/01/11 03:50:51;;;;;;;;;;;;;;;-0.73;100.00;103158.91;4964212;28;19922;-75
2022/01/11 03:53:18;;;;;;;;;;;;;;;-0.79;100.00;103163.28;4964075;28;20010;-74
2022/01/11 03:56:26;;;;;;;;;;;;;;;-0.78;100.00;103155.91;4963180;28;19929;-76
2022/01/11 03:58:34;;;;;;;;;;;;;;;-0.78;100.00;103170.16;4967800;28;19960;-76
2022/01/11 04:00:59;;;;;;;;;;;;;;;-0.72;100.00;103168.31;4966698;28;19918;-75
2022/01/11 04:03:25;;;;;;;;;;;;;;;-0.78;100.00;103168.53;4964395;28;20434;-75
2022/01/11 04:05:50;;;;;;;;;;;;;;;-0.75;100.00;103171.38;4959193;28;19929;-75
2022/01/11 04:08:15;;;;;;;;;;;;;;;-0.68;100.00;103171.31;4962870;28;19941;-75
2022/01/11 04:10:41;;;;;;;;;;;;;;;-0.74;100.00;103178.22;4967727;28;20307;-75
2022/01/11 04:13:06;;;;;;;;;;;;;;;-0.74;100.00;103169.75;4968159;28;19922;-75
2022/01/11 04:15:31;;;;;;;;;;;;;;;-0.64;100.00;103173.44;4962587;28;19933;-75
2022/01/11 04:17:56;;;;;;;;;;;;;;;-0.70;100.00;103180.38;4961421;28;20012;-75
2022/01/11 04:20:22;;;;;;;;;;;;;;;-0.76;100.00;103177.16;4964001;28;19922;-75
2022/01/11 04:22:50;;;;;;;;;;;;;;;-0.78;100.00;103166.00;4964465;28;20374;-75
2022/01/11 04:25:16;;;;;;;;;;;;;;;-0.81;100.00;103170.69;4961777;28;20000;-75
2022/01/11 04:27:42;;;;;;;;;;;;;;;-0.85;100.00;103184.63;4962054;28;19989;-75
2022/01/11 04:30:07;;;;;;;;;;;;;;;-0.84;100.00;103183.91;4965757;28;20363;-75
2022/01/11 04:32:33;;;;;;;;;;;;;;;-0.88;100.00;103194.38;4975926;28;19940;-75
2022/01/11 04:34:58;;;;;;;;;;;;;;;-0.89;100.00;103184.13;4962647;28;19923;-75
2022/01/11 04:37:24;;;;;;;;;;;;;;;-0.95;100.00;103185.97;4962679;28;19918;-75
2022/01/11 04:39:49;;;;;;;;;;;;;;;-0.96;100.00;103191.75;4960958;28;19922;-75
2022/01/11 04:42:14;;;;;;;;;;;;;;;-0.98;100.00;103190.66;4982651;28;20570;-76
2022/01/11 04:44:40;;;;;;;;;;;;;;;-1.02;100.00;103189.44;4963724;28;19930;-77
2022/01/11 04:47:05;;;;;;;;;;;;;;;-0.93;100.00;103194.59;4966534;28;19926;-77
2022/01/11 04:49:30;;;;;;;;;;;;;;;-1.03;100.00;103190.16;4959804;28;19929;-75
2022/01/11 04:51:56;;;;;;;;;;;;;;;-1.05;100.00;103183.13;4964370;28;19981;-75
2022/01/11 04:54:22;;;;;;;;;;;;;;;-0.99;100.00;103187.25;4960392;28;19922;-75
2022/01/11 04:56:47;;;;;;;;;;;;;;;-1.00;100.00;103182.03;4963081;28;20092;-75
2022/01/11 04:59:12;;;;;;;;;;;;;;;-1.06;100.00;103171.25;4959350;28;20391;-75
2022/01/11 05:01:40;;;;;;;;;;;;;;;-1.15;100.00;103174.56;4962467;28;19929;-75
2022/01/11 05:04:05;;;;;;;;;;;;;;;-1.15;100.00;103183.75;4961398;28;20009;-75
2022/01/11 05:06:30;;;;;;;;;;;;;;;-1.20;100.00;103188.28;4965579;28;20014;-75
2022/01/11 05:08:56;;;;;;;;;;;;;;;-1.29;100.00;103184.69;4964762;28;19918;-75
2022/01/11 05:11:22;;;;;;;;;;;;;;;-1.27;100.00;103180.75;4965501;28;19926;-75
2022/01/11 05:13:48;;;;;;;;;;;;;;;-1.35;100.00;103173.91;4962196;28;19933;-75
2022/01/11 05:16:13;;;;;;;;;;;;;;;-1.46;100.00;103175.22;4962399;28;19919;-76
2022/01/11 05:18:38;;;;;;;;;;;;;;;-1.45;100.00;103169.47;4960515;28;19929;-76
2022/01/11 05:21:04;;;;;;;;;;;;;;;-1.47;100.00;103172.53;4962014;28;19973;-76
2022/01/11 05:23:30;;;;;;;;;;;;;;;-1.50;100.00;103170.59;4965208;28;19981;-76
2022/01/11 05:25:55;;;;;;;;;;;;;;;-1.52;100.00;103169.50;4964529;28;19946;-75
2022/01/11 05:28:20;;;;;;;;;;;;;;;-1.56;100.00;103174.03;4962304;28;19922;-75
2022/01/11 05:30:46;;;;;;;;;;;;;;;-1.60;100.00;103170.25;4964599;28;20000;-76
2022/01/11 05:33:11;;;;;;;;;;;;;;;-1.59;100.00;103169.53;4965380;28;20295;-75
2022/01/11 05:35:36;;;;;;;;;;;;;;;-1.53;100.00;103181.94;4959847;28;19919;-75
2022/01/11 05:38:02;;;;;;;;;;;;;;;-1.68;100.00;103174.44;4961766;28;20439;-75
2022/01/11 05:40:27;;;;;;;;;;;;;;;-1.73;100.00;103180.59;4962915;28;19918;-76
2022/01/11 05:42:52;;;;;;;;;;;;;;;-1.72;100.00;103187.41;4965190;28;19926;-77
2022/01/11 05:45:18;;;;;;;;;;;;;;;-1.77;100.00;103186.00;4957222;28;19969;-75
2022/01/11 05:47:44;;;;;;;;;;;;;;;-1.76;100.00;103177.72;4962069;28;20029;-75
2022/01/11 05:50:10;;;;;;;;;;;;;;;-1.81;100.00;103176.28;4959398;28;21354;-76
2022/01/11 05:52:38;;;;;;;;;;;;;;;-1.79;100.00;103186.56;4959845;28;19960;-77
2022/01/11 05:55:04;;;;;;;;;;;;;;;-1.81;100.00;103188.91;4966310;28;19922;-75
2022/01/11 05:57:29;;;;;;;;;;;;;;;-1.89;100.00;103198.09;4965691;28;19953;-76
2022/01/11 05:59:55;;;;;;;;;;;;;;;-1.93;100.00;103195.97;4957787;28;19965;-76
2022/01/11 06:02:20;;;;;;;;;;;;;;;-1.94;100.00;103199.22;4963253;28;19926;-76
2022/01/11 06:04:45;;;;;;;;;;;;;;;-1.92;100.00;103211.97;4964608;28;20132;-73
2022/01/11 06:07:11;;;;;;;;;;;;;;;-1.97;100.00;103210.56;4963400;28;19929;-75
2022/01/11 06:09:36;;;;;;;;;;;;;;;-1.98;100.00;103213.81;4960232;28;20315;-75
2022/01/11 06:12:01;;;;;;;;;;;;;;;-2.03;100.00;103218.31;4958106;28;20689;-75
2022/01/11 06:14:27;;;;;;;;;;;;;;;-2.04;100.00;103224.06;4962458;28;19923;-76
2022/01/11 06:16:52;;;;;;;;;;;;;;;-2.07;100.00;103231.25;4962895;28;19922;-76
2022/01/11 06:19:17;;;;;;;;;;;;;;;-2.08;100.00;103229.47;4963721;28;19922;-75
2022/01/11 06:21:42;;;;;;;;;;;;;;;-2.08;100.00;103241.19;4961682;28;19919;-75
2022/01/11 06:24:08;;;;;;;;;;;;;;;-2.13;100.00;103237.22;4964834;28;20062;-75
2022/01/11 06:26:33;;;;;;;;;;;;;;;-2.16;100.00;103246.22;4959618;28;19937;-75
2022/01/11 06:29:01;;;;;;;;;;;;;;;-2.19;100.00;103244.97;4968264;28;19930;-75
2022/01/11 06:31:26;;;;;;;;;;;;;;;-2.20;100.00;103248.22;4964801;28;19926;-74
2022/01/11 06:33:51;;;;;;;;;;;;;;;-2.22;100.00;103237.94;4957806;28;19922;-75
2022/01/11 06:36:18;;;;;;;;;;;;;;;-2.25;100.00;103245.13;4961962;28;19918;-75
2022/01/11 06:38:44;;;;;;;;;;;;;;;-2.28;100.00;103247.31;4960933;28;19918;-75
2022/01/11 06:41:11;;;;;;;;;;;;;;;-2.24;100.00;103244.44;4965780;28;19949;-75
2022/01/11 06:43:37;;;;;;;;;;;;;;;-2.26;100.00;103260.09;4965349;28;19918;-73
2022/01/11 06:46:02;;;;;;;;;;;;;;;-2.28;100.00;103253.97;4962959;28;19949;-74
2022/01/11 06:48:28;;;;;;;;;;;;;;;-2.26;100.00;103258.47;4959770;28;19930;-73
2022/01/11 06:50:53;;;;;;;;;;;;;;;-2.30;100.00;103255.44;4960550;28;19930;-74
2022/01/11 06:53:18;;;;;;;;;;;;;;;-2.26;100.00;103265.13;4961951;28;19925;-74
2022/01/11 06:55:44;;;;;;;;;;;;;;;-2.26;100.00;103255.94;4962431;28;20011;-74
2022/01/11 06:58:09;;;;;;;;;;;;;;;-2.26;100.00;103261.00;4962239;28;19928;-74
2022/01/11 07:00:34;;;;;;;;;;;;;;;-2.24;100.00;103257.06;4965593;28;20037;-75
2022/01/11 07:03:00;;;;;;;;;;;;;;;-2.24;100.00;103252.00;4959931;28;20390;-75
2022/01/11 07:05:25;;;;;;;;;;;;;;;-2.23;100.00;103250.38;4961789;28;19926;-75
2022/01/11 07:07:50;;;;;;;;;;;;;;;-2.24;100.00;103261.19;4960308;28;20418;-75
2022/01/11 07:10:16;;;;;;;;;;;;;;;-2.23;100.00;103263.88;4964975;28;19937;-75
2022/01/11 07:12:41;;;;;;;;;;;;;;;-2.26;100.00;103260.09;4962738;28;20414;-75
2022/01/11 07:15:07;;;;;;;;;;;;;;;-2.26;100.00;103267.66;4956938;28;19932;-74
2022/01/11 07:17:32;;;;;;;;;;;;;;;-2.26;100.00;103272.69;4964417;28;20314;-74
2022/01/11 07:19:58;;;;;;;;;;;;;;;-2.27;100.00;103271.78;4966126;28;20407;-74
2022/01/11 07:22:23;;;;;;;;;;;;;;;-2.30;100.00;103284.06;4962822;28;20013;-74
2022/01/11 07:24:48;;;;;;;;;;;;;;;-2.25;100.00;103287.97;4966675;28;20446;-74
2022/01/11 07:27:14;;;;;;;;;;;;;;;-2.27;100.00;103280.97;4968807;28;19969;-74
2022/01/11 07:29:40;;;;;;;;;;;;;;;-2.27;100.00;103278.47;4964075;28;20292;-75
2022/01/11 07:32:05;;;;;;;;;;;;;;;-2.28;100.00;103286.75;4964507;28;20391;-76
2022/01/11 07:34:30;;;;;;;;;;;;;;;-2.28;100.00;103295.19;4963036;28;20281;-74
2022/01/11 07:36:56;;;;;;;;;;;;;;;-2.28;100.00;103297.72;4963194;28;19966;-75
2022/01/11 07:39:21;;;;;;;;;;;;;;;-2.21;100.00;103300.25;4967444;28;19965;-75
2022/01/11 07:41:47;;;;;;;;;;;;;;;-2.20;100.00;103304.56;4946100;28;19926;-75
2022/01/11 07:44:13;;;;;;;;;;;;;;;-2.22;100.00;103306.00;4965318;28;19930;-75
2022/01/11 07:46:39;;;;;;;;;;;;;;;-2.21;100.00;103307.81;4964821;28;20010;-75
2022/01/11 07:49:05;;;;;;;;;;;;;;;-2.18;100.00;103313.22;4962223;28;20002;-75
2022/01/11 07:51:30;;;;;;;;;;;;;;;-2.18;100.00;103309.81;4965504;28;21189;-75
2022/01/11 07:53:56;;;;;;;;;;;;;;;-2.13;100.00;103312.84;4965626;28;20399;-75
2022/01/11 07:56:22;;;;;;;;;;;;;;;-2.09;100.00;103315.00;4967179;28;19925;-76
2022/01/11 07:58:48;;;;;;;;;;;;;;;-2.04;100.00;103317.34;4967600;28;19929;-77
2022/01/11 08:01:13;;;;;;;;;;;;;;;-1.96;100.00;103313.19;4965097;28;20707;-75
2022/01/11 08:03:39;;;;;;;;;;;;;;;-1.93;100.00;103316.09;4966388;28;20011;-77
2022/01/11 08:06:04;;;;;;;;;;;;;;;-1.84;100.00;103307.06;4965608;28;19962;-76
2022/01/11 08:08:30;;;;;;;;;;;;;;;-1.73;100.00;103305.81;4966470;28;19929;-77
2022/01/11 08:10:56;;;;;;;;;;;;;;;-1.72;100.00;103303.44;4967059;28;20403;-78
2022/01/11 08:13:22;;;;;;;;;;;;;;;-1.68;100.00;103302.19;4968056;28;19929;-77
2022/01/11 08:15:47;;;;;;;;;;;;;;;-1.57;100.00;103306.88;4964914;28;19965;-77
2022/01/11 08:18:12;;;;;;;;;;;;;;;-1.47;100.00;103302.13;4962372;28;19922;-75
2022/01/11 08:20:38;;;;;;;;;;;;;;;-1.41;100.00;103310.41;4966660;28;19938;-75
2022/01/11 08:23:03;;;;;;;;;;;;;;;-1.31;100.00;103312.38;4957977;28;19926;-75
2022/01/11 08:25:29;;;;;;;;;;;;;;;-1.19;100.00;103306.19;4962036;28;19922;-76
2022/01/11 08:27:56;;;;;;;;;;;;;;;-1.09;100.00;103309.06;4964343;28;19932;-76
2022/01/11 08:30:21;;;;;;;;;;;;;;;-0.94;100.00;103314.94;4959843;28;19930;-76
2022/01/11 08:32:47;;;;;;;;;;;;;;;-0.84;100.00;103310.19;4965603;28;19918;-77
2022/01/11 08:35:12;;;;;;;;;;;;;;;-0.72;100.00;103310.69;4966285;28;19929;-77
2022/01/11 08:37:38;;;;;;;;;;;;;;;-0.52;100.00;103312.00;4966800;28;21924;-76
2022/01/11 08:40:04;;;;;;;;;;;;;;;-0.36;100.00;103313.00;4963313;28;19924;-76
2022/01/11 08:42:29;;;;;;;;;;;;;;;-0.18;100.00;103319.16;4962029;28;20299;-76
2022/01/11 08:44:56;;;;;;;;;;;;;;;-0.07;100.00;103313.66;4962857;28;20338;-76
2022/01/11 08:47:21;;;;;;;;;;;;;;;0.07;100.00;103320.25;4965135;28;19980;-76
2022/01/11 08:49:47;;;;;;;;;;;;;;;0.17;100.00;103320.47;4960665;28;19926;-76
2022/01/11 08:52:12;;;;;;;;;;;;;;;0.28;100.00;103317.50;4962879;28;19922;-76
2022/01/11 08:54:38;;;;;;;;;;;;;;;0.41;100.00;103320.59;4965650;28;19922;-76
2022/01/11 08:57:04;;;;;;;;;;;;;;;0.47;100.00;103323.81;4965113;28;19922;-77
2022/01/11 08:59:30;;;;;;;;;;;;;;;0.51;100.00;103320.88;4963419;28;20097;-76
2022/01/11 09:01:57;;;;;;;;;;;;;;;0.59;100.00;103320.78;4961386;28;20017;-76
2022/01/11 09:04:23;;;;;;;;;;;;;;;0.67;100.00;103320.91;4963177;28;19958;-76
2022/01/11 09:06:49;;;;;;;;;;;;;;;0.94;100.00;103320.38;4963910;28;20362;-75
2022/01/11 09:09:14;;;;;;;;;;;;;;;1.40;100.00;103320.16;4963189;28;20295;-76
2022/01/11 09:11:41;;;;;;;;;;;;;;;1.92;100.00;103320.44;4965117;28;19930;-76
2022/01/11 09:14:06;;;;;;;;;;;;;;;2.23;100.00;103326.06;4966244;28;19952;-75
2022/01/11 09:16:32;;;;;;;;;;;;;;;2.49;99.52;103318.50;4966606;28;20375;-76
2022/01/11 09:18:57;;;;;;;;;;;;;;;2.68;98.13;103322.16;4965974;28;19937;-76
2022/01/11 09:21:22;;;;;;;;;;;;;;;2.94;97.81;103319.63;4963519;28;19951;-76
2022/01/11 09:23:48;;;;;;;;;;;;;;;3.14;97.59;103324.13;4966417;28;19937;-76
2022/01/11 09:26:14;;;;;;;;;;;;;;;3.52;98.08;103322.75;4961308;28;19918;-76
2022/01/11 09:28:39;;;;;;;;;;;;;;;4.26;87.72;103328.00;4963846;28;19922;-76
2022/01/11 09:31:05;;;;;;;;;;;;;;;4.78;94.20;103320.03;4964200;28;19922;-76
2022/01/11 09:33:30;;;;;;;;;;;;;;;5.33;90.19;103325.84;4969391;28;19922;-76
2022/01/11 09:35:55;;;;;;;;;;;;;;;6.07;89.58;103319.53;4970355;28;19941;-76
2022/01/11 09:38:22;;;;;;;;;;;;;;;6.72;87.20;103329.28;4963802;28;19977;-76
2022/01/11 09:40:50;;;;;;;;;;;;;;;7.32;79.24;103337.63;4963834;28;19989;-76
2022/01/11 09:43:15;;;;;;;;;;;;;;;7.44;86.29;103336.03;4967875;28;19976;-76
2022/01/11 09:45:41;;;;;;;;;;;;;;;6.74;83.99;103339.66;4952196;28;19922;-77
2022/01/11 09:48:06;;;;;;;;;;;;;;;6.13;86.34;103338.84;4963627;28;19918;-76
2022/01/11 09:50:31;;;;;;;;;;;;;;;5.82;84.80;103337.81;4966337;28;19926;-76
2022/01/11 09:52:57;;;;;;;;;;;;;;;5.90;88.14;103341.94;4981708;28;19918;-76
2022/01/11 09:55:22;;;;;;;;;;;;;;;6.89;85.06;103343.47;4965928;28;20020;-77
2022/01/11 09:57:49;;;;;;;;;;;;;;;7.18;83.23;103345.84;4965099;28;19930;-76
2022/01/11 10:00:14;;;;;;;;;;;;;;;6.47;84.29;103341.69;4967769;28;20065;-77
2022/01/11 10:02:40;;;;;;;;;;;;;;;5.72;76.90;103348.00;4964874;28;20013;-77
2022/01/11 10:05:07;;;;;;;;;;;;;;;5.09;80.30;103342.41;4968929;28;19914;-78
2022/01/11 10:07:33;;;;;;;;;;;;;;;4.65;83.11;103351.16;4965473;28;20017;-77
2022/01/11 10:09:59;;;;;;;;;;;;;;;4.22;84.93;103354.84;4967900;28;19918;-76
2022/01/11 10:12:26;;;;;;;;;;;;;;;3.93;86.57;103364.81;4962654;28;19926;-77
2022/01/11 10:14:53;;;;;;;;;;;;;;;3.66;83.40;103360.56;4967449;28;19925;-77
2022/01/11 10:17:20;;;;;;;;;;;;;;;3.48;85.84;103354.59;4966663;28;19915;-76
2022/01/11 10:19:50;;;;;;;;;;;;;;;3.33;85.96;103354.75;4967958;28;19918;-77
2022/01/11 10:22:19;;;;;;;;;;;;;;;3.10;85.70;103353.44;4968811;28;19933;-76
2022/01/11 10:24:49;;;;;;;;;;;;;;;3.07;87.33;103345.50;4966263;28;19960;-76
2022/01/11 10:27:16;;;;;;;;;;;;;;;3.02;87.48;103346.69;4966662;28;20261;-79
2022/01/11 10:29:43;;;;;;;;;;;;;;;3.02;88.90;103349.22;4967507;28;19941;-76
2022/01/11 10:32:11;;;;;;;;;;;;;;;3.07;88.87;103350.59;4964955;28;19918;-75
2022/01/11 10:34:37;;;;;;;;;;;;;;;3.04;89.89;103347.75;4970613;28;20390;-75
2022/01/11 10:37:03;;;;;;;;;;;;;;;3.06;89.46;103343.72;4968451;28;19914;-76
2022/01/11 10:39:29;;;;;;;;;;;;;;;3.07;86.72;103344.59;4984542;28;19918;-77
2022/01/11 10:41:57;;;;;;;;;;;;;;;3.05;88.61;103352.09;4965211;28;19925;-75
2022/01/11 10:44:41;;;;;;;;;;;;;;;3.01;85.80;103354.19;4963276;28;19922;-76
2022/01/11 10:47:06;;;;;;;;;;;;;;;3.09;89.69;103355.81;4966480;28;19918;-76
2022/01/11 10:49:32;;;;;;;;;;;;;;;3.14;89.67;103359.72;4966370;28;20452;-76
2022/01/11 10:52:31;;;;;;;;;;;;;;;3.21;88.03;103355.34;4967983;28;19993;-77
2022/01/11 10:54:57;;;;;;;;;;;;;;;3.28;87.65;103353.44;4937002;28;19924;-76
2022/01/11 10:57:27;;;;;;;;;;;;;;;3.34;87.83;103357.47;4968229;28;19923;-77
2022/01/11 11:00:11;;;;;;;;;;;;;;;3.38;88.29;103346.81;4981719;28;19919;-77
2022/01/11 11:02:38;;;;;;;;;;;;;;;3.34;89.11;103341.31;4972366;28;20341;-77
2022/01/11 11:05:30;;;;;;;;;;;;;;;3.37;87.42;103342.50;4970696;28;19922;-76
2022/01/11 11:08:00;;;;;;;;;;;;;;;3.36;86.40;103348.34;4981084;28;20375;-76
2022/01/11 11:10:36;;;;;;;;;;;;;;;3.42;88.84;103364.19;4964870;28;19938;-77
2022/01/11 11:13:02;;;;;;;;;;;;;;;3.41;87.88;103356.41;4970430;28;19928;-77
2022/01/11 11:15:28;;;;;;;;;;;;;;;3.45;88.08;103355.94;4969912;28;19977;-77
2022/01/11 11:17:53;;;;;;;;;;;;;;;3.47;86.79;103362.09;4967164;28;19922;-77
2022/01/11 11:20:19;;;;;;;;;;;;;;;3.53;88.68;103367.78;4967802;28;19923;-77
2022/01/11 11:22:44;;;;;;;;;;;;;;;3.63;86.45;103364.44;4968756;28;19926;-77
2022/01/11 11:25:11;;;;;;;;;;;;;;;3.70;86.99;103357.56;4971872;28;19922;-77
2022/01/11 11:27:36;;;;;;;;;;;;;;;3.82;85.29;103354.38;4972699;28;19957;-77
2022/01/11 11:30:01;;;;;;;;;;;;;;;3.93;87.67;103357.19;4968599;28;20396;-77
2022/01/11 11:32:27;;;;;;;;;;;;;;;4.06;83.84;103338.88;4971464;28;19949;-77
2022/01/11 11:34:53;;;;;;;;;;;;;;;4.14;85.65;103337.94;4970381;28;19914;-77
2022/01/11 11:37:31;;;;;;;;;;;;;;;4.25;86.84;103337.31;4972316;28;20017;-76
2022/01/11 11:39:58;;;;;;;;;;;;;;;4.41;84.04;103334.50;4982678;28;20008;-77
2022/01/11 11:42:24;;;;;;;;;;;;;;;4.59;85.73;103325.13;4965580;28;19926;-76
2022/01/11 11:44:49;;;;;;;;;;;;;;;4.75;84.17;103320.66;4969757;28;19918;-77
2022/01/11 11:47:15;;;;;;;;;;;;;;;4.88;85.62;103325.22;4969448;28;19942;-77
2022/01/11 11:49:48;;;;;;;;;;;;;;;5.06;83.83;103328.53;4964651;28;20009;-77
2022/01/11 11:52:32;;;;;;;;;;;;;;;5.14;82.37;103327.53;4966528;28;19926;-76
2022/01/11 11:55:03;;;;;;;;;;;;;;;5.16;78.65;103327.66;4969163;28;20379;-77
2022/01/11 11:57:31;;;;;;;;;;;;;;;5.26;82.69;103336.28;4966870;28;19922;-77
2022/01/11 12:00:16;;;;;;;;;;;;;;;5.39;81.36;103334.06;4971442;28;20411;-77
2022/01/11 12:02:45;;;;;;;;;;;;;;;5.45;80.22;103338.81;4969413;28;20410;-76
2022/01/11 12:05:12;;;;;;;;;;;;;;;5.46;81.86;103342.25;4967798;28;20032;-77
2022/01/11 12:07:42;;;;;;;;;;;;;;;5.48;81.45;103339.09;4966052;28;20016;-76
2022/01/11 12:10:14;;;;;;;;;;;;;;;5.52;81.53;103328.41;4969451;28;20020;-76
2022/01/11 12:12:39;;;;;;;;;;;;;;;5.56;79.71;103327.88;4966896;28;19918;-77
2022/01/11 12:15:24;;;;;;;;;;;;;;;5.60;82.04;103332.50;4974480;28;19914;-77
2022/01/11 12:17:55;;;;;;;;;;;;;;;5.59;81.52;103332.38;4966735;28;20004;-76
2022/01/11 12:20:38;;;;;;;;;;;;;;;5.57;79.82;103341.53;4967217;28;20070;-76
2022/01/11 12:23:04;;;;;;;;;;;;;;;5.50;79.13;103339.22;4968168;28;19930;-77
2022/01/11 12:25:30;;;;;;;;;;;;;;;5.48;77.02;103326.31;4965066;28;19925;-76
2022/01/11 12:28:03;;;;;;;;;;;;;;;5.51;80.59;103328.25;4967935;28;20387;-76
2022/01/11 12:30:28;;;;;;;;;;;;;;;5.59;80.89;103327.28;4967360;28;20020;-76
2022/01/11 12:33:12;;;;;;;;;;;;;;;5.70;79.66;103320.53;4966221;28;20017;-75
2022/01/11 12:35:52;;;;;;;;;;;;;;;5.69;79.06;103329.84;4970475;28;20298;-76